createdAt,value
2023-02-19T00:00:01.102Z,997.8
2023-02-19T00:01:18.001Z,997.8
2023-02-19T00:02:35.021Z,997.8
2023-02-19T00:03:51.986Z,997.8
2023-02-19T00:05:09.070Z,997.8
2023-02-19T00:06:26.018Z,997.8
2023-02-19T00:07:43.062Z,997.7
2023-02-19T00:09:00.113Z,997.8
2023-02-19T00:10:17.021Z,997.8
2023-02-19T00:11:34.015Z,997.7
2023-02-19T00:12:51.008Z,997.7
2023-02-19T00:14:08.040Z,997.7
2023-02-19T00:15:25.017Z,997.7
2023-02-19T00:16:42.103Z,997.7
2023-02-19T00:17:59.032Z,997.7
2023-02-19T00:19:16.064Z,997.7
2023-02-19T00:20:33.047Z,997.7
2023-02-19T00:21:50.007Z,997.7
2023-02-19T00:23:07.034Z,997.7
2023-02-19T00:24:24.462Z,997.7
2023-02-19T00:25:41.023Z,997.7
2023-02-19T00:26:58.018Z,997.7
2023-02-19T00:28:15.029Z,997.7
2023-02-19T00:29:32.066Z,997.7
2023-02-19T00:30:49.105Z,997.7
2023-02-19T00:32:06.105Z,997.7
2023-02-19T00:33:23.046Z,997.7
2023-02-19T00:34:40.065Z,997.7
2023-02-19T00:35:57.042Z,997.6
2023-02-19T00:37:14.100Z,997.7
2023-02-19T00:38:31.116Z,997.7
2023-02-19T00:39:48.078Z,997.7
2023-02-19T00:41:05.053Z,997.6
2023-02-19T00:42:22.068Z,997.7
2023-02-19T00:43:39.094Z,997.6
2023-02-19T00:44:56.084Z,997.6
2023-02-19T00:46:13.113Z,997.6
2023-02-19T00:47:30.082Z,997.6
2023-02-19T00:48:47.310Z,997.6
2023-02-19T00:50:04.065Z,997.5
2023-02-19T00:51:21.642Z,997.5
2023-02-19T00:52:39.255Z,997.5
2023-02-19T00:53:57.090Z,997.5
2023-02-19T00:55:14.094Z,997.5
2023-02-19T00:56:31.076Z,997.5
2023-02-19T00:57:48.091Z,997.4
2023-02-19T00:59:05.103Z,997.4
2023-02-19T01:00:22.130Z,997.4
2023-02-19T01:01:39.341Z,997.4
2023-02-19T01:02:56.138Z,997.4
2023-02-19T01:04:13.197Z,997.4
2023-02-19T01:05:30.082Z,997.4
2023-02-19T01:06:47.087Z,997.4
2023-02-19T01:08:04.108Z,997.4
2023-02-19T01:09:21.147Z,997.3
2023-02-19T01:10:38.191Z,997.3
2023-02-19T01:11:55.104Z,997.3
2023-02-19T01:13:12.088Z,997.3
2023-02-19T01:14:29.117Z,997.2
2023-02-19T01:15:46.112Z,997.2
2023-02-19T01:17:03.089Z,997.3
2023-02-19T01:18:20.101Z,997.2
2023-02-19T01:19:37.160Z,997.2
2023-02-19T01:20:54.104Z,997.2
2023-02-19T01:22:11.110Z,997.2
2023-02-19T01:23:28.107Z,997.2
2023-02-19T01:24:45.170Z,997.2
2023-02-19T01:26:02.149Z,997.2
2023-02-19T01:27:19.109Z,997.1
2023-02-19T01:28:36.101Z,997.2
2023-02-19T01:29:53.147Z,997.2
2023-02-19T01:31:10.484Z,997.1
2023-02-19T01:32:27.135Z,997.1
2023-02-19T01:33:44.118Z,997.1
2023-02-19T01:35:01.127Z,997.1
2023-02-19T01:36:18.137Z,997.1
2023-02-19T01:37:35.126Z,997.1
2023-02-19T01:38:52.126Z,997.1
2023-02-19T01:40:09.125Z,997.1
2023-02-19T01:41:26.192Z,997.1
2023-02-19T01:42:43.130Z,997.1
2023-02-19T01:44:00.172Z,997.1
2023-02-19T01:45:17.153Z,997
2023-02-19T01:46:34.180Z,997
2023-02-19T01:47:51.182Z,997
2023-02-19T01:49:08.208Z,996.9
2023-02-19T01:50:25.147Z,996.9
2023-02-19T01:51:42.137Z,996.9
2023-02-19T01:52:59.140Z,996.9
2023-02-19T01:54:16.174Z,996.9
2023-02-19T01:55:33.165Z,997
2023-02-19T01:56:50.205Z,996.9
2023-02-19T01:58:07.148Z,996.9
2023-02-19T01:59:24.173Z,996.9
2023-02-19T02:00:41.188Z,996.8
2023-02-19T02:01:58.192Z,996.8
2023-02-19T02:03:15.154Z,996.8
2023-02-19T02:04:32.221Z,996.8
2023-02-19T02:05:49.165Z,996.7
2023-02-19T02:07:06.157Z,996.7
2023-02-19T02:08:23.174Z,996.7
2023-02-19T02:09:40.226Z,996.6
2023-02-19T02:10:57.166Z,996.5
2023-02-19T02:12:14.192Z,996.5
2023-02-19T02:13:31.259Z,996.4
2023-02-19T02:14:48.243Z,996.4
2023-02-19T02:16:05.184Z,996.4
2023-02-19T02:17:22.201Z,996.4
2023-02-19T02:18:39.193Z,996.4
2023-02-19T02:19:56.310Z,996.4
2023-02-19T02:21:13.216Z,996.5
2023-02-19T02:22:30.185Z,996.5
2023-02-19T02:23:47.221Z,996.5
2023-02-19T02:25:04.204Z,996.5
2023-02-19T02:26:21.216Z,996.5
2023-02-19T02:27:38.225Z,996.5
2023-02-19T02:28:55.216Z,996.4
2023-02-19T02:30:12.287Z,996.4
2023-02-19T02:31:29.323Z,996.4
2023-02-19T02:32:46.227Z,996.4
2023-02-19T02:34:03.214Z,996.4
2023-02-19T02:35:20.210Z,996.4
2023-02-19T02:36:37.265Z,996.3
2023-02-19T02:37:54.259Z,996.3
2023-02-19T02:39:11.209Z,996.3
2023-02-19T02:40:28.225Z,996.3
2023-02-19T02:41:45.219Z,996.3
2023-02-19T02:43:02.238Z,996.3
2023-02-19T02:44:19.277Z,996.3
2023-02-19T02:45:36.553Z,996.2
2023-02-19T02:46:53.249Z,996.2
2023-02-19T02:48:10.246Z,996.3
2023-02-19T02:49:27.248Z,996.3
2023-02-19T02:50:44.240Z,996.3
2023-02-19T02:52:01.306Z,996.3
2023-02-19T02:53:18.277Z,996.2
2023-02-19T02:54:35.248Z,996.2
2023-02-19T02:55:52.239Z,996.2
2023-02-19T02:57:09.333Z,996.3
2023-02-19T02:58:26.278Z,996.2
2023-02-19T02:59:43.275Z,996.2
2023-02-19T03:01:00.274Z,996.3
2023-02-19T03:02:17.324Z,996.2
2023-02-19T03:03:34.308Z,996.2
2023-02-19T03:04:51.273Z,996.1
2023-02-19T03:06:08.239Z,996.2
2023-02-19T03:07:25.241Z,996.2
2023-02-19T03:08:42.285Z,996.1
2023-02-19T03:09:59.260Z,996.1
2023-02-19T03:11:16.251Z,996.1
2023-02-19T03:12:33.289Z,996.1
2023-02-19T03:13:50.285Z,996.2
2023-02-19T03:15:07.267Z,996.2
2023-02-19T03:16:24.364Z,996.1
2023-02-19T03:17:41.301Z,996.2
2023-02-19T03:18:58.271Z,996.1
2023-02-19T03:20:15.257Z,996.1
2023-02-19T03:21:32.609Z,996.1
2023-02-19T03:22:49.265Z,996.1
2023-02-19T03:24:06.279Z,996.2
2023-02-19T03:25:23.334Z,996.1
2023-02-19T03:26:40.302Z,996.2
2023-02-19T03:27:57.269Z,996.2
2023-02-19T03:29:14.304Z,996.1
2023-02-19T03:30:31.401Z,996.1
2023-02-19T03:31:48.331Z,996.1
2023-02-19T03:33:05.327Z,996.1
2023-02-19T03:34:22.304Z,996.1
2023-02-19T03:35:39.295Z,996.1
2023-02-19T03:36:56.278Z,996
2023-02-19T03:38:13.298Z,996
2023-02-19T03:39:30.339Z,996
2023-02-19T03:40:47.292Z,996
2023-02-19T03:42:04.293Z,995.9
2023-02-19T03:43:21.456Z,995.8
2023-02-19T03:44:38.290Z,995.8
2023-02-19T03:45:55.353Z,995.8
2023-02-19T03:47:12.294Z,995.8
2023-02-19T03:48:29.356Z,995.6
2023-02-19T03:49:48.914Z,995.7
2023-02-19T03:51:03.314Z,995.7
2023-02-19T03:52:20.317Z,995.8
2023-02-19T03:53:37.375Z,995.8
2023-02-19T03:54:54.313Z,995.8
2023-02-19T03:56:11.363Z,995.8
2023-02-19T03:57:28.313Z,995.8
2023-02-19T03:58:45.317Z,995.8
2023-02-19T04:00:02.352Z,995.8
2023-02-19T04:01:19.410Z,995.9
2023-02-19T04:02:36.325Z,995.8
2023-02-19T04:03:53.323Z,995.8
2023-02-19T04:05:11.316Z,995.9
2023-02-19T04:06:27.387Z,995.9
2023-02-19T04:07:44.326Z,995.9
2023-02-19T04:09:01.332Z,995.9
2023-02-19T04:10:18.337Z,995.9
2023-02-19T04:11:35.393Z,995.8
2023-02-19T04:12:52.386Z,995.9
2023-02-19T04:14:09.357Z,995.9
2023-02-19T04:15:26.380Z,995.8
2023-02-19T04:16:43.409Z,995.8
2023-02-19T04:18:00.350Z,995.8
2023-02-19T04:19:17.352Z,995.8
2023-02-19T04:20:34.441Z,995.8
2023-02-19T04:21:51.424Z,995.8
2023-02-19T04:23:08.388Z,995.8
2023-02-19T04:24:25.354Z,995.8
2023-02-19T04:25:42.380Z,995.8
2023-02-19T04:26:59.419Z,995.8
2023-02-19T04:28:16.363Z,995.8
2023-02-19T04:29:33.359Z,995.8
2023-02-19T04:30:50.439Z,995.8
2023-02-19T04:32:07.412Z,995.8
2023-02-19T04:33:24.368Z,995.8
2023-02-19T04:34:41.352Z,995.8
2023-02-19T04:35:58.393Z,995.8
2023-02-19T04:37:15.426Z,995.8
2023-02-19T04:38:32.377Z,995.7
2023-02-19T04:39:49.379Z,995.7
2023-02-19T04:41:06.408Z,995.8
2023-02-19T04:42:23.400Z,995.7
2023-02-19T04:43:40.397Z,995.7
2023-02-19T04:44:57.409Z,995.7
2023-02-19T04:46:14.694Z,995.7
2023-02-19T04:47:31.419Z,995.7
2023-02-19T04:48:48.394Z,995.7
2023-02-19T04:50:05.413Z,995.7
2023-02-19T04:51:22.532Z,995.7
2023-02-19T04:52:39.379Z,995.7
2023-02-19T04:53:56.433Z,995.7
2023-02-19T04:55:13.382Z,995.7
2023-02-19T04:56:30.407Z,995.7
2023-02-19T04:57:47.464Z,995.6
2023-02-19T04:59:04.391Z,995.6
2023-02-19T05:00:21.739Z,995.6
2023-02-19T05:01:38.458Z,995.6
2023-02-19T05:02:55.404Z,995.5
2023-02-19T05:04:12.424Z,995.5
2023-02-19T05:05:29.505Z,995.5
2023-02-19T05:06:46.401Z,995.5
2023-02-19T05:08:03.424Z,995.5
2023-02-19T05:09:20.415Z,995.4
2023-02-19T05:10:37.431Z,995.4
2023-02-19T05:11:54.436Z,995.4
2023-02-19T05:13:11.462Z,995.4
2023-02-19T05:14:28.436Z,995.4
2023-02-19T05:15:45.469Z,995.4
2023-02-19T05:17:02.424Z,995.4
2023-02-19T05:18:19.451Z,995.4
2023-02-19T05:19:36.435Z,995.5
2023-02-19T05:20:53.427Z,995.5
2023-02-19T05:22:10.544Z,995.4
2023-02-19T05:23:27.469Z,995.4
2023-02-19T05:24:44.466Z,995.4
2023-02-19T05:26:01.455Z,995.4
2023-02-19T05:27:18.489Z,995.4
2023-02-19T05:28:35.454Z,995.4
2023-02-19T05:29:52.450Z,995.4
2023-02-19T05:31:09.837Z,995.4
2023-02-19T05:32:26.458Z,995.3
2023-02-19T05:33:43.449Z,995.3
2023-02-19T05:35:00.447Z,995.3
2023-02-19T05:36:17.467Z,995.4
2023-02-19T05:37:34.482Z,995.4
2023-02-19T05:38:51.441Z,995.3
2023-02-19T05:40:08.500Z,995.3
2023-02-19T05:41:25.481Z,995.4
2023-02-19T05:42:42.466Z,995.4
2023-02-19T05:43:59.468Z,995.3
2023-02-19T05:45:16.537Z,995.3
2023-02-19T05:46:33.488Z,995.3
2023-02-19T05:47:50.464Z,995.3
2023-02-19T05:49:07.463Z,995.4
2023-02-19T05:50:24.515Z,995.4
2023-02-19T05:51:41.492Z,995.3
2023-02-19T05:52:58.490Z,995.4
2023-02-19T05:54:15.701Z,995.4
2023-02-19T05:55:32.552Z,995.4
2023-02-19T05:56:49.549Z,995.4
2023-02-19T05:58:06.491Z,995.4
2023-02-19T05:59:23.490Z,995.4
2023-02-19T06:00:40.512Z,995.4
2023-02-19T06:01:57.527Z,995.4
2023-02-19T06:03:14.485Z,995.4
2023-02-19T06:04:31.507Z,995.4
2023-02-19T06:05:48.552Z,995.4
2023-02-19T06:07:05.522Z,995.4
2023-02-19T06:08:22.481Z,995.4
2023-02-19T06:09:39.576Z,995.5
2023-02-19T06:10:56.519Z,995.5
2023-02-19T06:12:13.489Z,995.5
2023-02-19T06:13:30.492Z,995.5
2023-02-19T06:14:47.521Z,995.5
2023-02-19T06:16:04.554Z,995.5
2023-02-19T06:17:21.547Z,995.5
2023-02-19T06:18:38.520Z,995.5
2023-02-19T06:19:55.503Z,995.5
2023-02-19T06:21:12.766Z,995.6
2023-02-19T06:22:29.533Z,995.7
2023-02-19T06:23:46.524Z,995.6
2023-02-19T06:25:03.510Z,995.6
2023-02-19T06:26:20.523Z,995.7
2023-02-19T06:27:37.538Z,995.7
2023-02-19T06:28:54.601Z,995.7
2023-02-19T06:30:11.605Z,995.8
2023-02-19T06:31:28.630Z,995.7
2023-02-19T06:32:45.591Z,995.7
2023-02-19T06:34:02.525Z,995.8
2023-02-19T06:35:19.530Z,995.7
2023-02-19T06:36:36.535Z,995.8
2023-02-19T06:37:53.594Z,995.7
2023-02-19T06:39:10.531Z,995.7
2023-02-19T06:40:27.554Z,995.7
2023-02-19T06:41:44.534Z,995.8
2023-02-19T06:43:01.598Z,995.8
2023-02-19T06:44:18.543Z,995.8
2023-02-19T06:45:35.547Z,995.9
2023-02-19T06:46:52.586Z,995.9
2023-02-19T06:48:09.580Z,995.9
2023-02-19T06:49:26.584Z,995.9
2023-02-19T06:50:43.581Z,995.8
2023-02-19T06:52:00.592Z,995.9
2023-02-19T06:53:17.598Z,995.9
2023-02-19T06:54:34.561Z,995.9
2023-02-19T06:55:53.131Z,995.9
2023-02-19T06:57:11.604Z,995.9
2023-02-19T06:58:28.628Z,995.9
2023-02-19T06:59:45.598Z,995.9
2023-02-19T07:01:02.622Z,995.9
2023-02-19T07:02:19.563Z,995.9
2023-02-19T07:03:36.625Z,995.9
2023-02-19T07:04:53.562Z,995.9
2023-02-19T07:06:10.567Z,995.8
2023-02-19T07:07:27.557Z,995.8
2023-02-19T07:08:44.598Z,995.8
2023-02-19T07:10:01.603Z,995.8
2023-02-19T07:11:18.580Z,995.9
2023-02-19T07:12:35.602Z,995.9
2023-02-19T07:13:52.602Z,995.9
2023-02-19T07:15:09.576Z,995.9
2023-02-19T07:16:26.665Z,995.9
2023-02-19T07:17:43.618Z,995.9
2023-02-19T07:19:00.592Z,995.9
2023-02-19T07:20:17.593Z,995.9
2023-02-19T07:21:34.576Z,996
2023-02-19T07:22:51.783Z,996
2023-02-19T07:24:08.598Z,996
2023-02-19T07:25:25.589Z,996.1
2023-02-19T07:26:42.610Z,996.1
2023-02-19T07:27:59.637Z,996.1
2023-02-19T07:29:16.633Z,996.1
2023-02-19T07:30:33.670Z,996.2
2023-02-19T07:31:50.615Z,996.2
2023-02-19T07:33:10.337Z,996.2
2023-02-19T07:34:24.596Z,996.2
2023-02-19T07:35:41.629Z,996.3
2023-02-19T07:36:58.612Z,996.3
2023-02-19T07:38:15.638Z,996.4
2023-02-19T07:39:32.620Z,996.4
2023-02-19T07:40:49.598Z,996.4
2023-02-19T07:42:06.620Z,996.4
2023-02-19T07:43:23.671Z,996.4
2023-02-19T07:44:40.625Z,996.5
2023-02-19T07:45:57.662Z,996.5
2023-02-19T07:47:14.621Z,996.5
2023-02-19T07:48:31.670Z,996.5
2023-02-19T07:49:48.623Z,996.6
2023-02-19T07:51:05.664Z,996.6
2023-02-19T07:52:22.651Z,996.6
2023-02-19T07:53:39.679Z,996.6
2023-02-19T07:54:56.676Z,996.6
2023-02-19T07:56:13.639Z,996.7
2023-02-19T07:57:30.638Z,996.7
2023-02-19T07:58:47.633Z,996.8
2023-02-19T08:00:04.710Z,996.8
2023-02-19T08:01:21.686Z,996.8
2023-02-19T08:02:38.638Z,996.8
2023-02-19T08:03:55.641Z,996.8
2023-02-19T08:05:12.635Z,996.8
2023-02-19T08:06:29.678Z,996.9
2023-02-19T08:07:46.648Z,996.9
2023-02-19T08:09:03.706Z,996.9
2023-02-19T08:10:20.654Z,996.9
2023-02-19T08:11:37.669Z,996.9
2023-02-19T08:12:54.651Z,996.9
2023-02-19T08:14:11.697Z,996.9
2023-02-19T08:15:28.668Z,996.9
2023-02-19T08:16:45.690Z,996.9
2023-02-19T08:18:02.686Z,996.9
2023-02-19T08:19:19.712Z,996.9
2023-02-19T08:20:36.675Z,996.9
2023-02-19T08:21:53.752Z,997
2023-02-19T08:23:10.696Z,997
2023-02-19T08:24:27.683Z,997
2023-02-19T08:25:44.672Z,997.1
2023-02-19T08:27:01.683Z,997.1
2023-02-19T08:28:18.721Z,997.1
2023-02-19T08:29:35.689Z,997.1
2023-02-19T08:30:52.718Z,997.1
2023-02-19T08:32:09.731Z,997.2
2023-02-19T08:33:26.685Z,997.2
2023-02-19T08:34:43.704Z,997.2
2023-02-19T08:36:00.714Z,997.2
2023-02-19T08:37:17.685Z,997.2
2023-02-19T08:38:34.676Z,997.2
2023-02-19T08:39:51.717Z,997.2
2023-02-19T08:41:09.033Z,997.3
2023-02-19T08:42:25.723Z,997.3
2023-02-19T08:43:42.765Z,997.3
2023-02-19T08:44:59.688Z,997.3
2023-02-19T08:46:16.746Z,997.3
2023-02-19T08:47:33.691Z,997.4
2023-02-19T08:48:50.728Z,997.4
2023-02-19T08:50:07.739Z,997.4
2023-02-19T08:51:24.696Z,997.4
2023-02-19T08:52:41.720Z,997.4
2023-02-19T08:53:58.736Z,997.5
2023-02-19T08:55:15.715Z,997.5
2023-02-19T08:56:32.705Z,997.5
2023-02-19T08:57:50.628Z,997.5
2023-02-19T08:59:06.728Z,997.5
2023-02-19T09:00:23.783Z,997.5
2023-02-19T09:01:40.743Z,997.5
2023-02-19T09:02:57.721Z,997.6
2023-02-19T09:04:14.824Z,997.5
2023-02-19T09:05:31.757Z,997.5
2023-02-19T09:06:48.706Z,997.5
2023-02-19T09:08:05.716Z,997.5
2023-02-19T09:09:22.750Z,997.5
2023-02-19T09:10:39.737Z,997.5
2023-02-19T09:11:56.736Z,997.5
2023-02-19T09:13:13.710Z,997.5
2023-02-19T09:14:30.748Z,997.5
2023-02-19T09:15:47.796Z,997.5
2023-02-19T09:17:04.755Z,997.5
2023-02-19T09:18:21.741Z,997.5
2023-02-19T09:19:38.764Z,997.5
2023-02-19T09:20:55.742Z,997.5
2023-02-19T09:22:12.761Z,997.6
2023-02-19T09:23:29.751Z,997.7
2023-02-19T09:24:46.859Z,997.7
2023-02-19T09:26:03.752Z,997.7
2023-02-19T09:27:20.809Z,997.7
2023-02-19T09:28:37.751Z,997.8
2023-02-19T09:29:55.114Z,997.7
2023-02-19T09:31:12.120Z,997.8
2023-02-19T09:32:28.786Z,997.8
2023-02-19T09:33:45.763Z,997.8
2023-02-19T09:35:02.823Z,997.8
2023-02-19T09:36:19.774Z,997.8
2023-02-19T09:37:36.782Z,997.8
2023-02-19T09:38:53.756Z,997.8
2023-02-19T09:40:10.796Z,997.9
2023-02-19T09:41:27.840Z,997.9
2023-02-19T09:42:44.857Z,997.9
2023-02-19T09:44:01.785Z,997.9
2023-02-19T09:45:18.844Z,997.9
2023-02-19T09:46:35.776Z,998
2023-02-19T09:47:52.771Z,997.9
2023-02-19T09:49:09.777Z,997.9
2023-02-19T09:50:26.826Z,998
2023-02-19T09:51:43.770Z,998
2023-02-19T09:53:00.800Z,998
2023-02-19T09:54:17.833Z,997.9
2023-02-19T09:55:34.822Z,998
2023-02-19T09:56:51.826Z,998
2023-02-19T09:58:08.781Z,998
2023-02-19T09:59:25.791Z,998
2023-02-19T10:00:42.820Z,998
2023-02-19T10:01:59.813Z,998.1
2023-02-19T10:03:16.802Z,998.1
2023-02-19T10:04:33.833Z,998.1
2023-02-19T10:05:50.793Z,998.2
2023-02-19T10:07:07.799Z,998.2
2023-02-19T10:08:24.799Z,998.2
2023-02-19T10:09:41.832Z,998.3
2023-02-19T10:10:58.839Z,998.3
2023-02-19T10:12:15.800Z,998.4
2023-02-19T10:13:32.833Z,998.4
2023-02-19T10:14:49.837Z,998.4
2023-02-19T10:16:06.919Z,998.5
2023-02-19T10:17:23.826Z,998.5
2023-02-19T10:18:40.819Z,998.5
2023-02-19T10:19:57.813Z,998.5
2023-02-19T10:21:14.861Z,998.6
2023-02-19T10:22:31.827Z,998.6
2023-02-19T10:23:48.812Z,998.6
2023-02-19T10:25:05.818Z,998.6
2023-02-19T10:26:22.853Z,998.6
2023-02-19T10:27:39.855Z,998.7
2023-02-19T10:28:56.822Z,998.7
2023-02-19T10:30:13.880Z,998.7
2023-02-19T10:31:30.974Z,998.7
2023-02-19T10:32:48.054Z,998.7
2023-02-19T10:34:04.841Z,998.8
2023-02-19T10:35:21.822Z,998.8
2023-02-19T10:36:38.839Z,998.8
2023-02-19T10:37:55.895Z,998.8
2023-02-19T10:39:12.839Z,998.9
2023-02-19T10:40:29.839Z,998.9
2023-02-19T10:41:46.912Z,998.9
2023-02-19T10:43:03.901Z,998.9
2023-02-19T10:44:20.840Z,999
2023-02-19T10:45:37.858Z,998.9
2023-02-19T10:46:54.853Z,999
2023-02-19T10:48:11.888Z,999
2023-02-19T10:49:28.847Z,999
2023-02-19T10:50:45.863Z,999
2023-02-19T10:52:02.881Z,999
2023-02-19T10:53:19.904Z,999
2023-02-19T10:54:36.853Z,999
2023-02-19T10:55:53.863Z,999.1
2023-02-19T10:57:10.904Z,999
2023-02-19T10:58:27.868Z,999.1
2023-02-19T10:59:44.934Z,999.1
2023-02-19T11:01:01.873Z,999.1
2023-02-19T11:02:18.954Z,999.2
2023-02-19T11:03:35.864Z,999.3
2023-02-19T11:04:52.868Z,999.3
2023-02-19T11:06:09.876Z,999.3
2023-02-19T11:07:26.939Z,999.3
2023-02-19T11:08:43.890Z,999.3
2023-02-19T11:10:00.900Z,999.3
2023-02-19T11:11:17.875Z,999.3
2023-02-19T11:12:34.910Z,999.3
2023-02-19T11:13:51.882Z,999.3
2023-02-19T11:15:08.893Z,999.3
2023-02-19T11:16:25.939Z,999.4
2023-02-19T11:17:42.909Z,999.4
2023-02-19T11:18:59.889Z,999.4
2023-02-19T11:20:16.886Z,999.5
2023-02-19T11:21:33.899Z,999.5
2023-02-19T11:22:50.927Z,999.4
2023-02-19T11:24:07.897Z,999.5
2023-02-19T11:25:24.895Z,999.4
2023-02-19T11:26:41.901Z,999.5
2023-02-19T11:27:58.935Z,999.5
2023-02-19T11:29:15.897Z,999.5
2023-02-19T11:30:35.739Z,999.5
2023-02-19T11:31:49.968Z,999.5
2023-02-19T11:33:06.930Z,999.4
2023-02-19T11:34:23.914Z,999.4
2023-02-19T11:35:40.930Z,999.4
2023-02-19T11:36:57.928Z,999.4
2023-02-19T11:38:14.921Z,999.4
2023-02-19T11:39:31.941Z,999.3
2023-02-19T11:40:48.917Z,999.3
2023-02-19T11:42:05.940Z,999.3
2023-02-19T11:43:22.983Z,999.2
2023-02-19T11:44:39.937Z,999.3
2023-02-19T11:45:57.023Z,999.2
2023-02-19T11:47:13.938Z,999.3
2023-02-19T11:48:31.008Z,999.2
2023-02-19T11:49:47.947Z,999.2
2023-02-19T11:51:04.931Z,999.2
2023-02-19T11:52:22.043Z,999.2
2023-02-19T11:53:39.095Z,999.2
2023-02-19T11:54:55.956Z,999.1
2023-02-19T11:56:12.948Z,999.2
2023-02-19T11:57:29.933Z,999.3
2023-02-19T11:58:47.010Z,999.3
2023-02-19T12:00:03.997Z,999.4
2023-02-19T12:01:20.964Z,999.4
2023-02-19T12:02:37.945Z,999.4
2023-02-19T12:03:54.955Z,999.4
2023-02-19T12:05:12.051Z,999.4
2023-02-19T12:06:28.978Z,999.5
2023-02-19T12:07:45.972Z,999.5
2023-02-19T12:09:02.948Z,999.5
2023-02-19T12:10:19.992Z,999.5
2023-02-19T12:11:36.947Z,999.6
2023-02-19T12:12:53.948Z,999.6
2023-02-19T12:14:11.027Z,999.6
2023-02-19T12:15:28.000Z,999.6
2023-02-19T12:16:45.069Z,999.7
2023-02-19T12:18:01.977Z,999.7
2023-02-19T12:19:18.962Z,999.7
2023-02-19T12:20:36.141Z,999.8
2023-02-19T12:21:52.977Z,999.8
2023-02-19T12:23:09.981Z,999.8
2023-02-19T12:24:27.002Z,999.9
2023-02-19T12:25:44.041Z,999.9
2023-02-19T12:27:00.967Z,999.9
2023-02-19T12:28:17.978Z,999.9
2023-02-19T12:29:35.007Z,1000
2023-02-19T12:30:52.033Z,1000
2023-02-19T12:32:09.110Z,1000
2023-02-19T12:33:25.997Z,1000
2023-02-19T12:34:43.021Z,1000
2023-02-19T12:36:00.020Z,1000
2023-02-19T12:37:17.025Z,1000
2023-02-19T12:38:33.985Z,1000.1
2023-02-19T12:39:51.005Z,1000
2023-02-19T12:41:07.992Z,1000
2023-02-19T12:42:25.024Z,1000.1
2023-02-19T12:43:42.001Z,1000
2023-02-19T12:44:59.015Z,1000.1
2023-02-19T12:46:16.274Z,1000.1
2023-02-19T12:47:33.027Z,1000
2023-02-19T12:48:50.010Z,1000
2023-02-19T12:50:07.015Z,1000
2023-02-19T12:51:24.062Z,1000
2023-02-19T12:52:41.035Z,1000.1
2023-02-19T12:53:58.014Z,1000.1
2023-02-19T12:55:15.018Z,1000.1
2023-02-19T12:56:32.077Z,1000.1
2023-02-19T12:57:49.017Z,1000.2
2023-02-19T12:59:06.031Z,1000.2
2023-02-19T13:00:23.016Z,1000.3
2023-02-19T13:01:40.077Z,1000.3
2023-02-19T13:02:57.061Z,1000.3
2023-02-19T13:04:14.023Z,1000.4
2023-02-19T13:05:31.024Z,1000.4
2023-02-19T13:06:48.027Z,1000.5
2023-02-19T13:08:05.062Z,1000.4
2023-02-19T13:09:22.075Z,1000.4
2023-02-19T13:10:39.042Z,1000.4
2023-02-19T13:11:56.050Z,1000.5
2023-02-19T13:13:13.068Z,1000.5
2023-02-19T13:14:30.032Z,1000.5
2023-02-19T13:15:47.050Z,1000.6
2023-02-19T13:17:04.088Z,1000.5
2023-02-19T13:18:21.072Z,1000.6
2023-02-19T13:19:38.075Z,1000.5
2023-02-19T13:20:55.058Z,1000.5
2023-02-19T13:22:12.060Z,1000.5
2023-02-19T13:23:29.153Z,1000.5
2023-02-19T13:24:46.042Z,1000.6
2023-02-19T13:26:03.060Z,1000.6
2023-02-19T13:27:20.064Z,1000.6
2023-02-19T13:28:37.134Z,1000.6
2023-02-19T13:29:54.081Z,1000.6
2023-02-19T13:31:11.489Z,1000.7
2023-02-19T13:32:28.072Z,1000.7
2023-02-19T13:33:45.127Z,1000.7
2023-02-19T13:35:02.079Z,1000.8
2023-02-19T13:36:19.073Z,1000.7
2023-02-19T13:37:36.082Z,1000.8
2023-02-19T13:38:53.139Z,1000.7
2023-02-19T13:40:10.073Z,1000.7
2023-02-19T13:41:27.099Z,1000.8
2023-02-19T13:42:44.092Z,1000.8
2023-02-19T13:44:01.146Z,1000.7
2023-02-19T13:45:18.112Z,1000.7
2023-02-19T13:46:35.090Z,1000.7
2023-02-19T13:47:52.087Z,1000.7
2023-02-19T13:49:09.219Z,1000.7
2023-02-19T13:50:26.132Z,1000.7
2023-02-19T13:51:43.106Z,1000.7
2023-02-19T13:53:00.109Z,1000.7
2023-02-19T13:54:17.125Z,1000.7
2023-02-19T13:55:34.125Z,1000.8
2023-02-19T13:56:51.097Z,1000.8
2023-02-19T13:58:08.176Z,1000.8
2023-02-19T13:59:25.143Z,1000.8
2023-02-19T14:00:42.135Z,1000.8
2023-02-19T14:01:59.127Z,1000.8
2023-02-19T14:03:16.100Z,1000.8
2023-02-19T14:04:33.094Z,1000.8
2023-02-19T14:05:50.136Z,1000.9
2023-02-19T14:07:07.117Z,1000.9
2023-02-19T14:08:24.098Z,1000.9
2023-02-19T14:09:41.140Z,1000.9
2023-02-19T14:10:58.133Z,1000.9
2023-02-19T14:12:15.828Z,1000.8
2023-02-19T14:13:32.172Z,1000.9
2023-02-19T14:14:49.118Z,1000.9
2023-02-19T14:16:06.200Z,1000.9
2023-02-19T14:17:23.186Z,1000.9
2023-02-19T14:18:40.173Z,1001
2023-02-19T14:19:57.118Z,1000.9
2023-02-19T14:21:14.144Z,1000.9
2023-02-19T14:22:31.161Z,1001
2023-02-19T14:23:48.124Z,1001
2023-02-19T14:25:05.131Z,1001
2023-02-19T14:26:22.138Z,1001
2023-02-19T14:27:39.155Z,1001.1
2023-02-19T14:28:56.247Z,1001.1
2023-02-19T14:30:13.178Z,1001.1
2023-02-19T14:31:30.255Z,1001.1
2023-02-19T14:32:50.970Z,1001.1
2023-02-19T14:34:04.378Z,1001.1
2023-02-19T14:35:21.151Z,1001.1
2023-02-19T14:36:38.134Z,1001.1
2023-02-19T14:37:55.143Z,1001.2
2023-02-19T14:39:12.172Z,1001.2
2023-02-19T14:40:29.172Z,1001.2
2023-02-19T14:41:46.170Z,1001.2
2023-02-19T14:43:03.148Z,1001.3
2023-02-19T14:44:20.183Z,1001.3
2023-02-19T14:45:37.188Z,1001.3
2023-02-19T14:46:54.167Z,1001.3
2023-02-19T14:48:11.825Z,1001.3
2023-02-19T14:49:28.173Z,1001.4
2023-02-19T14:50:45.188Z,1001.5
2023-02-19T14:52:02.158Z,1001.5
2023-02-19T14:53:19.194Z,1001.4
2023-02-19T14:54:36.179Z,1001.5
2023-02-19T14:55:53.201Z,1001.5
2023-02-19T14:57:10.172Z,1001.6
2023-02-19T14:58:27.160Z,1001.6
2023-02-19T14:59:44.165Z,1001.6
2023-02-19T15:01:01.284Z,1001.6
2023-02-19T15:02:18.173Z,1001.6
2023-02-19T15:03:35.177Z,1001.7
2023-02-19T15:04:52.227Z,1001.7
2023-02-19T15:06:09.210Z,1001.7
2023-02-19T15:07:26.169Z,1001.7
2023-02-19T15:08:43.174Z,1001.7
2023-02-19T15:10:01.490Z,1001.8
2023-02-19T15:11:17.229Z,1001.8
2023-02-19T15:12:34.218Z,1001.8
2023-02-19T15:13:51.213Z,1001.8
2023-02-19T15:15:08.209Z,1001.8
2023-02-19T15:16:25.865Z,1001.8
2023-02-19T15:17:42.214Z,1001.8
2023-02-19T15:18:59.197Z,1001.8
2023-02-19T15:20:16.195Z,1001.8
2023-02-19T15:21:33.210Z,1001.8
2023-02-19T15:22:50.219Z,1001.8
2023-02-19T15:24:07.212Z,1001.9
2023-02-19T15:25:24.205Z,1001.9
2023-02-19T15:26:41.205Z,1001.9
2023-02-19T15:27:58.254Z,1001.9
2023-02-19T15:29:15.205Z,1001.9
2023-02-19T15:30:32.323Z,1001.9
2023-02-19T15:31:49.352Z,1002
2023-02-19T15:33:06.242Z,1002
2023-02-19T15:34:23.319Z,1002
2023-02-19T15:35:40.244Z,1002
2023-02-19T15:36:57.227Z,1002
2023-02-19T15:38:14.245Z,1002.1
2023-02-19T15:39:31.227Z,1002.1
2023-02-19T15:40:48.252Z,1002.1
2023-02-19T15:42:05.243Z,1002.1
2023-02-19T15:43:22.262Z,1002.1
2023-02-19T15:44:39.310Z,1002.1
2023-02-19T15:45:56.226Z,1002.2
2023-02-19T15:47:13.239Z,1002.2
2023-02-19T15:48:30.296Z,1002.1
2023-02-19T15:49:47.249Z,1002.2
2023-02-19T15:51:04.251Z,1002.2
2023-02-19T15:52:21.256Z,1002.2
2023-02-19T15:53:38.460Z,1002.3
2023-02-19T15:54:55.272Z,1002.3
2023-02-19T15:56:12.288Z,1002.4
2023-02-19T15:57:29.253Z,1002.4
2023-02-19T15:58:46.310Z,1002.4
2023-02-19T16:00:03.339Z,1002.5
2023-02-19T16:01:20.333Z,1002.5
2023-02-19T16:02:37.300Z,1002.5
2023-02-19T16:03:54.345Z,1002.5
2023-02-19T16:05:11.252Z,1002.5
2023-02-19T16:06:28.279Z,1002.6
2023-02-19T16:07:45.334Z,1002.6
2023-02-19T16:09:02.314Z,1002.6
2023-02-19T16:10:19.278Z,1002.6
2023-02-19T16:11:36.277Z,1002.6
2023-02-19T16:12:53.301Z,1002.6
2023-02-19T16:14:10.296Z,1002.6
2023-02-19T16:15:27.272Z,1002.6
2023-02-19T16:16:44.305Z,1002.6
2023-02-19T16:18:01.303Z,1002.6
2023-02-19T16:19:18.342Z,1002.7
2023-02-19T16:20:35.324Z,1002.7
2023-02-19T16:21:52.279Z,1002.7
2023-02-19T16:23:09.299Z,1002.7
2023-02-19T16:24:26.280Z,1002.7
2023-02-19T16:25:43.330Z,1002.7
2023-02-19T16:27:00.279Z,1002.7
2023-02-19T16:28:17.315Z,1002.8